sensor_id;sensor_type;location;lat;lon;timestamp;P1;durP1;ratioP1;P2;durP2;ratioP2
36233;SDS011;43467;50.890;5.982;2023-12-14T00:00:23;33.80;;;20.90;;
36233;SDS011;43467;50.890;5.982;2023-12-14T00:02:48;36.92;;;22.08;;
36233;SDS011;43467;50.890;5.982;2023-12-14T00:05:14;33.72;;;19.85;;
36233;SDS011;43467;50.890;5.982;2023-12-14T00:07:39;34.35;;;21.38;;
36233;SDS011;43467;50.890;5.982;2023-12-14T00:10:05;37.88;;;22.80;;
36233;SDS011;43467;50.890;5.982;2023-12-14T00:12:30;32.45;;;21.67;;
36233;SDS011;43467;50.890;5.982;2023-12-14T00:14:56;32.67;;;20.83;;
36233;SDS011;43467;50.890;5.982;2023-12-14T00:17:21;33.42;;;21.20;;
36233;SDS011;43467;50.890;5.982;2023-12-14T00:19:47;33.95;;;21.83;;
36233;SDS011;43467;50.890;5.982;2023-12-14T00:22:12;33.35;;;21.15;;
36233;SDS011;43467;50.890;5.982;2023-12-14T00:24:38;30.65;;;19.88;;
36233;SDS011;43467;50.890;5.982;2023-12-14T00:27:03;31.25;;;19.63;;
36233;SDS011;43467;50.890;5.982;2023-12-14T00:29:29;30.92;;;19.27;;
36233;SDS011;43467;50.890;5.982;2023-12-14T00:31:55;29.98;;;18.80;;
36233;SDS011;43467;50.890;5.982;2023-12-14T00:34:20;29.52;;;18.65;;
36233;SDS011;43467;50.890;5.982;2023-12-14T00:36:45;32.03;;;19.73;;
36233;SDS011;43467;50.890;5.982;2023-12-14T00:39:11;31.65;;;19.48;;
36233;SDS011;43467;50.890;5.982;2023-12-14T00:41:36;35.47;;;21.30;;
36233;SDS011;43467;50.890;5.982;2023-12-14T00:44:02;32.70;;;20.10;;
36233;SDS011;43467;50.890;5.982;2023-12-14T00:46:27;32.33;;;20.20;;
36233;SDS011;43467;50.890;5.982;2023-12-14T00:48:53;34.22;;;20.75;;
36233;SDS011;43467;50.890;5.982;2023-12-14T00:51:19;34.08;;;21.25;;
36233;SDS011;43467;50.890;5.982;2023-12-14T00:53:44;37.85;;;21.65;;
36233;SDS011;43467;50.890;5.982;2023-12-14T00:56:10;32.08;;;19.83;;
36233;SDS011;43467;50.890;5.982;2023-12-14T00:58:35;34.63;;;20.88;;
36233;SDS011;43467;50.890;5.982;2023-12-14T01:01:01;33.72;;;19.63;;
36233;SDS011;43467;50.890;5.982;2023-12-14T01:03:26;35.58;;;20.30;;
36233;SDS011;43467;50.890;5.982;2023-12-14T01:05:51;34.53;;;21.30;;
36233;SDS011;43467;50.890;5.982;2023-12-14T01:08:17;39.42;;;22.30;;
36233;SDS011;43467;50.890;5.982;2023-12-14T01:10:42;40.92;;;22.02;;
36233;SDS011;43467;50.890;5.982;2023-12-14T01:13:08;40.88;;;22.77;;
36233;SDS011;43467;50.890;5.982;2023-12-14T01:15:33;42.80;;;23.45;;
36233;SDS011;43467;50.890;5.982;2023-12-14T01:17:59;43.50;;;24.40;;
36233;SDS011;43467;50.890;5.982;2023-12-14T01:20:24;39.85;;;23.20;;
36233;SDS011;43467;50.890;5.982;2023-12-14T01:22:49;40.47;;;23.85;;
36233;SDS011;43467;50.890;5.982;2023-12-14T01:25:15;35.80;;;21.90;;
36233;SDS011;43467;50.890;5.982;2023-12-14T01:27:40;38.05;;;22.08;;
36233;SDS011;43467;50.890;5.982;2023-12-14T01:30:06;41.13;;;22.77;;
36233;SDS011;43467;50.890;5.982;2023-12-14T01:32:32;42.80;;;23.75;;
36233;SDS011;43467;50.890;5.982;2023-12-14T01:34:58;42.63;;;24.05;;
36233;SDS011;43467;50.890;5.982;2023-12-14T01:37:23;42.90;;;24.45;;
36233;SDS011;43467;50.890;5.982;2023-12-14T01:39:49;42.03;;;24.27;;
36233;SDS011;43467;50.890;5.982;2023-12-14T01:42:14;43.05;;;24.55;;
36233;SDS011;43467;50.890;5.982;2023-12-14T01:44:39;45.15;;;24.98;;
36233;SDS011;43467;50.890;5.982;2023-12-14T01:47:05;50.42;;;26.85;;
36233;SDS011;43467;50.890;5.982;2023-12-14T01:49:30;48.08;;;25.63;;
36233;SDS011;43467;50.890;5.982;2023-12-14T01:51:55;53.22;;;28.15;;
36233;SDS011;43467;50.890;5.982;2023-12-14T01:54:21;56.95;;;30.40;;
36233;SDS011;43467;50.890;5.982;2023-12-14T01:56:46;46.58;;;26.63;;
36233;SDS011;43467;50.890;5.982;2023-12-14T01:59:11;53.53;;;27.65;;
36233;SDS011;43467;50.890;5.982;2023-12-14T02:01:39;50.28;;;27.90;;
36233;SDS011;43467;50.890;5.982;2023-12-14T02:04:06;46.45;;;26.30;;
36233;SDS011;43467;50.890;5.982;2023-12-14T02:06:33;55.97;;;28.17;;
36233;SDS011;43467;50.890;5.982;2023-12-14T02:08:59;50.42;;;27.23;;
36233;SDS011;43467;50.890;5.982;2023-12-14T02:11:24;49.60;;;26.10;;
36233;SDS011;43467;50.890;5.982;2023-12-14T02:13:50;50.00;;;25.80;;
36233;SDS011;43467;50.890;5.982;2023-12-14T02:16:16;52.80;;;26.23;;
36233;SDS011;43467;50.890;5.982;2023-12-14T02:18:41;43.05;;;23.52;;
36233;SDS011;43467;50.890;5.982;2023-12-14T02:21:06;48.50;;;23.30;;
36233;SDS011;43467;50.890;5.982;2023-12-14T02:23:32;38.85;;;22.63;;
36233;SDS011;43467;50.890;5.982;2023-12-14T02:25:58;35.92;;;20.42;;
36233;SDS011;43467;50.890;5.982;2023-12-14T02:28:24;35.42;;;21.17;;
36233;SDS011;43467;50.890;5.982;2023-12-14T02:30:49;38.50;;;21.90;;
36233;SDS011;43467;50.890;5.982;2023-12-14T02:33:14;37.22;;;22.00;;
36233;SDS011;43467;50.890;5.982;2023-12-14T02:35:40;37.72;;;21.77;;
36233;SDS011;43467;50.890;5.982;2023-12-14T02:38:05;33.80;;;20.65;;
36233;SDS011;43467;50.890;5.982;2023-12-14T02:40:30;34.30;;;19.23;;
36233;SDS011;43467;50.890;5.982;2023-12-14T02:42:56;36.47;;;20.67;;
36233;SDS011;43467;50.890;5.982;2023-12-14T02:45:21;35.03;;;20.35;;
36233;SDS011;43467;50.890;5.982;2023-12-14T02:47:46;32.40;;;19.45;;
36233;SDS011;43467;50.890;5.982;2023-12-14T02:50:13;36.13;;;20.75;;
36233;SDS011;43467;50.890;5.982;2023-12-14T02:52:39;28.65;;;17.95;;
36233;SDS011;43467;50.890;5.982;2023-12-14T02:55:04;24.25;;;16.52;;
36233;SDS011;43467;50.890;5.982;2023-12-14T02:57:32;27.67;;;17.27;;
36233;SDS011;43467;50.890;5.982;2023-12-14T02:59:57;28.50;;;17.15;;
36233;SDS011;43467;50.890;5.982;2023-12-14T03:02:23;25.27;;;16.15;;
36233;SDS011;43467;50.890;5.982;2023-12-14T03:04:48;29.48;;;16.52;;
36233;SDS011;43467;50.890;5.982;2023-12-14T03:07:14;28.63;;;16.00;;
36233;SDS011;43467;50.890;5.982;2023-12-14T03:09:39;30.05;;;18.15;;
36233;SDS011;43467;50.890;5.982;2023-12-14T03:12:09;29.00;;;16.90;;
36233;SDS011;43467;50.890;5.982;2023-12-14T03:14:35;29.33;;;17.50;;
36233;SDS011;43467;50.890;5.982;2023-12-14T03:17:01;29.80;;;16.90;;
36233;SDS011;43467;50.890;5.982;2023-12-14T03:19:27;30.05;;;17.80;;
36233;SDS011;43467;50.890;5.982;2023-12-14T03:21:53;27.40;;;16.65;;
36233;SDS011;43467;50.890;5.982;2023-12-14T03:24:18;30.63;;;18.83;;
36233;SDS011;43467;50.890;5.982;2023-12-14T03:26:44;30.05;;;17.75;;
36233;SDS011;43467;50.890;5.982;2023-12-14T03:29:09;32.35;;;18.30;;
36233;SDS011;43467;50.890;5.982;2023-12-14T03:31:35;31.85;;;18.98;;
36233;SDS011;43467;50.890;5.982;2023-12-14T03:34:00;31.00;;;18.30;;
36233;SDS011;43467;50.890;5.982;2023-12-14T03:36:26;27.45;;;17.92;;
36233;SDS011;43467;50.890;5.982;2023-12-14T03:38:52;27.55;;;16.90;;
36233;SDS011;43467;50.890;5.982;2023-12-14T03:41:18;27.00;;;17.55;;
36233;SDS011;43467;50.890;5.982;2023-12-14T03:43:43;25.90;;;16.52;;
36233;SDS011;43467;50.890;5.982;2023-12-14T03:46:09;26.00;;;15.90;;
36233;SDS011;43467;50.890;5.982;2023-12-14T03:48:35;26.40;;;16.52;;
36233;SDS011;43467;50.890;5.982;2023-12-14T03:51:03;25.00;;;16.02;;
36233;SDS011;43467;50.890;5.982;2023-12-14T03:53:30;27.55;;;16.67;;
36233;SDS011;43467;50.890;5.982;2023-12-14T03:55:56;28.33;;;16.73;;
36233;SDS011;43467;50.890;5.982;2023-12-14T03:58:24;27.08;;;16.98;;
36233;SDS011;43467;50.890;5.982;2023-12-14T04:00:49;27.17;;;16.48;;
36233;SDS011;43467;50.890;5.982;2023-12-14T04:03:15;29.85;;;17.90;;
36233;SDS011;43467;50.890;5.982;2023-12-14T04:05:40;30.38;;;18.17;;
36233;SDS011;43467;50.890;5.982;2023-12-14T04:08:06;32.33;;;18.75;;
36233;SDS011;43467;50.890;5.982;2023-12-14T04:10:31;31.13;;;18.58;;
36233;SDS011;43467;50.890;5.982;2023-12-14T04:12:56;29.90;;;17.48;;
36233;SDS011;43467;50.890;5.982;2023-12-14T04:15:22;29.83;;;18.08;;
36233;SDS011;43467;50.890;5.982;2023-12-14T04:17:48;29.85;;;17.95;;
36233;SDS011;43467;50.890;5.982;2023-12-14T04:20:14;29.85;;;17.05;;
36233;SDS011;43467;50.890;5.982;2023-12-14T04:22:41;26.83;;;17.27;;
36233;SDS011;43467;50.890;5.982;2023-12-14T04:25:07;30.10;;;18.33;;
36233;SDS011;43467;50.890;5.982;2023-12-14T04:27:32;28.35;;;15.82;;
36233;SDS011;43467;50.890;5.982;2023-12-14T04:29:58;28.58;;;17.15;;
36233;SDS011;43467;50.890;5.982;2023-12-14T04:32:23;27.65;;;17.23;;
36233;SDS011;43467;50.890;5.982;2023-12-14T04:34:49;29.05;;;16.67;;
36233;SDS011;43467;50.890;5.982;2023-12-14T04:37:14;30.73;;;17.92;;
36233;SDS011;43467;50.890;5.982;2023-12-14T04:39:40;30.15;;;17.70;;
36233;SDS011;43467;50.890;5.982;2023-12-14T04:42:05;31.80;;;17.75;;
36233;SDS011;43467;50.890;5.982;2023-12-14T04:44:31;28.67;;;16.45;;
36233;SDS011;43467;50.890;5.982;2023-12-14T04:46:56;23.73;;;14.68;;
36233;SDS011;43467;50.890;5.982;2023-12-14T04:49:21;26.67;;;15.95;;
36233;SDS011;43467;50.890;5.982;2023-12-14T04:51:47;24.77;;;14.85;;
36233;SDS011;43467;50.890;5.982;2023-12-14T04:54:12;25.83;;;14.65;;
36233;SDS011;43467;50.890;5.982;2023-12-14T04:56:37;24.40;;;14.95;;
36233;SDS011;43467;50.890;5.982;2023-12-14T04:59:03;25.70;;;15.05;;
36233;SDS011;43467;50.890;5.982;2023-12-14T05:01:28;27.63;;;16.15;;
36233;SDS011;43467;50.890;5.982;2023-12-14T05:03:54;29.20;;;17.77;;
36233;SDS011;43467;50.890;5.982;2023-12-14T05:06:20;34.95;;;19.05;;
36233;SDS011;43467;50.890;5.982;2023-12-14T05:08:46;31.30;;;18.42;;
36233;SDS011;43467;50.890;5.982;2023-12-14T05:11:14;28.33;;;17.40;;
36233;SDS011;43467;50.890;5.982;2023-12-14T05:13:40;28.30;;;16.98;;
36233;SDS011;43467;50.890;5.982;2023-12-14T05:16:06;32.95;;;18.17;;
36233;SDS011;43467;50.890;5.982;2023-12-14T05:18:32;30.75;;;17.50;;
36233;SDS011;43467;50.890;5.982;2023-12-14T05:20:57;25.60;;;15.63;;
36233;SDS011;43467;50.890;5.982;2023-12-14T05:23:23;27.90;;;17.08;;
36233;SDS011;43467;50.890;5.982;2023-12-14T05:25:49;25.17;;;15.10;;
36233;SDS011;43467;50.890;5.982;2023-12-14T05:28:14;25.05;;;15.68;;
36233;SDS011;43467;50.890;5.982;2023-12-14T05:30:40;25.23;;;16.00;;
36233;SDS011;43467;50.890;5.982;2023-12-14T05:33:06;24.90;;;15.07;;
36233;SDS011;43467;50.890;5.982;2023-12-14T05:35:34;23.75;;;15.02;;
36233;SDS011;43467;50.890;5.982;2023-12-14T05:37:59;22.63;;;13.85;;
36233;SDS011;43467;50.890;5.982;2023-12-14T05:40:25;24.60;;;15.05;;
36233;SDS011;43467;50.890;5.982;2023-12-14T05:42:51;22.13;;;13.45;;
36233;SDS011;43467;50.890;5.982;2023-12-14T05:45:17;24.17;;;15.00;;
36233;SDS011;43467;50.890;5.982;2023-12-14T05:47:43;23.00;;;13.80;;
36233;SDS011;43467;50.890;5.982;2023-12-14T05:50:09;22.70;;;14.73;;
36233;SDS011;43467;50.890;5.982;2023-12-14T05:52:35;26.67;;;16.13;;
36233;SDS011;43467;50.890;5.982;2023-12-14T05:55:01;27.55;;;15.57;;
36233;SDS011;43467;50.890;5.982;2023-12-14T05:57:26;24.85;;;15.50;;
36233;SDS011;43467;50.890;5.982;2023-12-14T05:59:51;26.02;;;15.90;;
36233;SDS011;43467;50.890;5.982;2023-12-14T06:02:17;26.45;;;15.90;;
36233;SDS011;43467;50.890;5.982;2023-12-14T06:04:42;27.77;;;16.67;;
36233;SDS011;43467;50.890;5.982;2023-12-14T06:07:07;27.23;;;14.95;;
36233;SDS011;43467;50.890;5.982;2023-12-14T06:09:34;26.05;;;15.20;;
36233;SDS011;43467;50.890;5.982;2023-12-14T06:12:03;28.80;;;16.48;;
36233;SDS011;43467;50.890;5.982;2023-12-14T06:14:29;29.00;;;16.48;;
36233;SDS011;43467;50.890;5.982;2023-12-14T06:16:55;25.65;;;15.90;;
36233;SDS011;43467;50.890;5.982;2023-12-14T06:19:21;25.73;;;15.95;;
36233;SDS011;43467;50.890;5.982;2023-12-14T06:21:47;29.92;;;16.77;;
36233;SDS011;43467;50.890;5.982;2023-12-14T06:24:13;31.17;;;16.48;;
36233;SDS011;43467;50.890;5.982;2023-12-14T06:26:42;28.60;;;16.20;;
36233;SDS011;43467;50.890;5.982;2023-12-14T06:29:08;29.33;;;16.80;;
36233;SDS011;43467;50.890;5.982;2023-12-14T06:31:37;29.60;;;16.38;;
36233;SDS011;43467;50.890;5.982;2023-12-14T06:34:03;25.55;;;15.77;;
36233;SDS011;43467;50.890;5.982;2023-12-14T06:36:31;25.40;;;15.57;;
36233;SDS011;43467;50.890;5.982;2023-12-14T06:38:57;23.80;;;14.40;;
36233;SDS011;43467;50.890;5.982;2023-12-14T06:41:24;21.75;;;13.50;;
36233;SDS011;43467;50.890;5.982;2023-12-14T06:43:50;26.20;;;14.32;;
36233;SDS011;43467;50.890;5.982;2023-12-14T06:46:15;24.35;;;13.77;;
36233;SDS011;43467;50.890;5.982;2023-12-14T06:48:41;26.00;;;15.20;;
36233;SDS011;43467;50.890;5.982;2023-12-14T06:51:07;28.58;;;15.27;;
36233;SDS011;43467;50.890;5.982;2023-12-14T06:53:33;24.45;;;14.18;;
36233;SDS011;43467;50.890;5.982;2023-12-14T06:55:59;27.90;;;15.00;;
36233;SDS011;43467;50.890;5.982;2023-12-14T06:58:25;30.13;;;15.82;;
36233;SDS011;43467;50.890;5.982;2023-12-14T07:00:50;28.83;;;14.75;;
36233;SDS011;43467;50.890;5.982;2023-12-14T07:03:16;35.50;;;15.98;;
36233;SDS011;43467;50.890;5.982;2023-12-14T07:05:41;49.40;;;18.90;;
36233;SDS011;43467;50.890;5.982;2023-12-14T07:08:07;61.08;;;18.52;;
36233;SDS011;43467;50.890;5.982;2023-12-14T07:10:32;63.92;;;18.92;;
36233;SDS011;43467;50.890;5.982;2023-12-14T07:12:58;41.78;;;16.95;;
36233;SDS011;43467;50.890;5.982;2023-12-14T07:15:23;55.75;;;18.27;;
36233;SDS011;43467;50.890;5.982;2023-12-14T07:17:49;38.47;;;17.83;;
36233;SDS011;43467;50.890;5.982;2023-12-14T07:20:14;31.45;;;17.52;;
36233;SDS011;43467;50.890;5.982;2023-12-14T07:22:40;33.03;;;17.20;;
36233;SDS011;43467;50.890;5.982;2023-12-14T07:25:07;30.38;;;16.98;;
36233;SDS011;43467;50.890;5.982;2023-12-14T07:27:33;33.03;;;17.25;;
36233;SDS011;43467;50.890;5.982;2023-12-14T07:29:58;28.63;;;17.00;;
36233;SDS011;43467;50.890;5.982;2023-12-14T07:32:24;30.73;;;17.48;;
36233;SDS011;43467;50.890;5.982;2023-12-14T07:34:49;36.63;;;20.90;;
36233;SDS011;43467;50.890;5.982;2023-12-14T07:37:15;36.17;;;21.33;;
36233;SDS011;43467;50.890;5.982;2023-12-14T07:39:41;40.00;;;22.10;;
36233;SDS011;43467;50.890;5.982;2023-12-14T07:42:06;33.90;;;20.73;;
36233;SDS011;43467;50.890;5.982;2023-12-14T07:44:32;35.53;;;20.90;;
36233;SDS011;43467;50.890;5.982;2023-12-14T07:46:59;38.03;;;22.30;;
36233;SDS011;43467;50.890;5.982;2023-12-14T07:49:25;36.92;;;20.98;;
36233;SDS011;43467;50.890;5.982;2023-12-14T07:51:51;38.75;;;22.50;;
36233;SDS011;43467;50.890;5.982;2023-12-14T07:54:16;39.40;;;21.98;;
36233;SDS011;43467;50.890;5.982;2023-12-14T07:56:42;33.20;;;21.17;;
36233;SDS011;43467;50.890;5.982;2023-12-14T07:59:07;36.28;;;20.58;;
36233;SDS011;43467;50.890;5.982;2023-12-14T08:01:34;39.90;;;22.58;;
36233;SDS011;43467;50.890;5.982;2023-12-14T08:03:59;36.67;;;21.83;;
36233;SDS011;43467;50.890;5.982;2023-12-14T08:06:25;38.90;;;21.63;;
36233;SDS011;43467;50.890;5.982;2023-12-14T08:08:50;31.30;;;19.67;;
36233;SDS011;43467;50.890;5.982;2023-12-14T08:11:16;33.80;;;20.45;;
36233;SDS011;43467;50.890;5.982;2023-12-14T08:13:41;40.13;;;21.95;;
36233;SDS011;43467;50.890;5.982;2023-12-14T08:16:07;33.15;;;19.30;;
36233;SDS011;43467;50.890;5.982;2023-12-14T08:18:33;35.03;;;19.80;;
36233;SDS011;43467;50.890;5.982;2023-12-14T08:20:58;33.78;;;19.60;;
36233;SDS011;43467;50.890;5.982;2023-12-14T08:23:24;31.52;;;18.55;;
36233;SDS011;43467;50.890;5.982;2023-12-14T08:25:52;29.80;;;18.90;;
36233;SDS011;43467;50.890;5.982;2023-12-14T08:28:21;29.77;;;18.00;;
36233;SDS011;43467;50.890;5.982;2023-12-14T08:30:50;31.13;;;18.52;;
36233;SDS011;43467;50.890;5.982;2023-12-14T08:33:16;33.15;;;20.15;;
36233;SDS011;43467;50.890;5.982;2023-12-14T08:35:42;33.85;;;20.02;;
36233;SDS011;43467;50.890;5.982;2023-12-14T08:38:09;30.92;;;18.80;;
36233;SDS011;43467;50.890;5.982;2023-12-14T08:40:36;28.90;;;18.08;;
36233;SDS011;43467;50.890;5.982;2023-12-14T08:43:01;28.15;;;17.92;;
36233;SDS011;43467;50.890;5.982;2023-12-14T08:45:28;28.65;;;17.50;;
36233;SDS011;43467;50.890;5.982;2023-12-14T08:47:53;22.60;;;15.15;;
36233;SDS011;43467;50.890;5.982;2023-12-14T08:50:18;25.63;;;16.63;;
36233;SDS011;43467;50.890;5.982;2023-12-14T08:52:44;26.85;;;16.95;;
36233;SDS011;43467;50.890;5.982;2023-12-14T08:55:09;27.58;;;17.10;;
36233;SDS011;43467;50.890;5.982;2023-12-14T08:57:35;24.13;;;15.40;;
36233;SDS011;43467;50.890;5.982;2023-12-14T09:00:00;23.45;;;14.88;;
36233;SDS011;43467;50.890;5.982;2023-12-14T09:02:29;24.17;;;15.43;;
36233;SDS011;43467;50.890;5.982;2023-12-14T09:04:54;23.52;;;14.98;;
36233;SDS011;43467;50.890;5.982;2023-12-14T09:07:19;23.60;;;15.80;;
36233;SDS011;43467;50.890;5.982;2023-12-14T09:09:45;29.85;;;17.42;;
36233;SDS011;43467;50.890;5.982;2023-12-14T09:12:10;26.13;;;17.00;;
36233;SDS011;43467;50.890;5.982;2023-12-14T09:14:35;24.77;;;16.35;;
36233;SDS011;43467;50.890;5.982;2023-12-14T09:17:01;24.90;;;16.02;;
36233;SDS011;43467;50.890;5.982;2023-12-14T09:19:28;24.00;;;16.02;;
36233;SDS011;43467;50.890;5.982;2023-12-14T09:21:54;24.30;;;16.02;;
36233;SDS011;43467;50.890;5.982;2023-12-14T09:24:20;25.60;;;16.90;;
36233;SDS011;43467;50.890;5.982;2023-12-14T09:26:45;23.05;;;15.60;;
36233;SDS011;43467;50.890;5.982;2023-12-14T09:29:10;26.13;;;16.52;;
36233;SDS011;43467;50.890;5.982;2023-12-14T09:31:36;26.08;;;17.27;;
36233;SDS011;43467;50.890;5.982;2023-12-14T09:34:01;24.42;;;16.85;;
36233;SDS011;43467;50.890;5.982;2023-12-14T09:36:29;24.48;;;16.13;;
36233;SDS011;43467;50.890;5.982;2023-12-14T09:38:54;26.73;;;17.17;;
36233;SDS011;43467;50.890;5.982;2023-12-14T09:41:20;23.33;;;15.60;;
36233;SDS011;43467;50.890;5.982;2023-12-14T09:43:45;26.92;;;17.02;;
36233;SDS011;43467;50.890;5.982;2023-12-14T09:46:11;28.85;;;18.33;;
36233;SDS011;43467;50.890;5.982;2023-12-14T09:48:37;27.05;;;17.55;;
36233;SDS011;43467;50.890;5.982;2023-12-14T09:51:04;29.98;;;17.42;;
36233;SDS011;43467;50.890;5.982;2023-12-14T09:53:31;28.55;;;18.05;;
36233;SDS011;43467;50.890;5.982;2023-12-14T09:55:56;26.10;;;17.80;;
36233;SDS011;43467;50.890;5.982;2023-12-14T09:58:22;29.70;;;18.48;;
36233;SDS011;43467;50.890;5.982;2023-12-14T10:00:47;27.15;;;18.33;;
36233;SDS011;43467;50.890;5.982;2023-12-14T10:03:20;28.25;;;18.17;;
36233;SDS011;43467;50.890;5.982;2023-12-14T10:05:47;30.85;;;18.35;;
36233;SDS011;43467;50.890;5.982;2023-12-14T10:08:14;26.05;;;17.70;;
36233;SDS011;43467;50.890;5.982;2023-12-14T10:10:41;27.27;;;18.67;;
36233;SDS011;43467;50.890;5.982;2023-12-14T10:13:06;28.50;;;18.58;;
36233;SDS011;43467;50.890;5.982;2023-12-14T10:15:39;26.73;;;17.02;;
36233;SDS011;43467;50.890;5.982;2023-12-14T10:18:08;25.50;;;16.50;;
36233;SDS011;43467;50.890;5.982;2023-12-14T10:20:34;25.40;;;16.38;;
36233;SDS011;43467;50.890;5.982;2023-12-14T10:23:01;26.08;;;17.02;;
36233;SDS011;43467;50.890;5.982;2023-12-14T10:25:29;25.15;;;16.77;;
36233;SDS011;43467;50.890;5.982;2023-12-14T10:27:55;26.52;;;16.85;;
36233;SDS011;43467;50.890;5.982;2023-12-14T10:30:22;31.42;;;19.00;;
36233;SDS011;43467;50.890;5.982;2023-12-14T10:32:48;26.98;;;17.15;;
36233;SDS011;43467;50.890;5.982;2023-12-14T10:35:14;26.08;;;16.33;;
36233;SDS011;43467;50.890;5.982;2023-12-14T10:37:41;28.35;;;17.67;;
36233;SDS011;43467;50.890;5.982;2023-12-14T10:40:09;30.10;;;17.35;;
36233;SDS011;43467;50.890;5.982;2023-12-14T10:42:37;29.70;;;18.13;;
36233;SDS011;43467;50.890;5.982;2023-12-14T10:45:05;26.65;;;16.33;;
36233;SDS011;43467;50.890;5.982;2023-12-14T10:47:31;27.80;;;16.27;;
36233;SDS011;43467;50.890;5.982;2023-12-14T10:49:58;27.38;;;16.40;;
36233;SDS011;43467;50.890;5.982;2023-12-14T10:52:26;27.80;;;17.50;;
36233;SDS011;43467;50.890;5.982;2023-12-14T10:54:53;25.83;;;16.38;;
36233;SDS011;43467;50.890;5.982;2023-12-14T10:57:23;27.23;;;16.55;;
36233;SDS011;43467;50.890;5.982;2023-12-14T10:59:49;26.23;;;16.23;;
36233;SDS011;43467;50.890;5.982;2023-12-14T11:02:15;27.50;;;16.10;;
36233;SDS011;43467;50.890;5.982;2023-12-14T11:07:49;27.30;;;16.02;;
36233;SDS011;43467;50.890;5.982;2023-12-14T11:10:19;25.70;;;15.10;;
36233;SDS011;43467;50.890;5.982;2023-12-14T11:13:12;25.83;;;15.98;;
36233;SDS011;43467;50.890;5.982;2023-12-14T11:15:38;25.35;;;14.98;;
36233;SDS011;43467;50.890;5.982;2023-12-14T11:23:11;24.58;;;15.02;;
36233;SDS011;43467;50.890;5.982;2023-12-14T11:25:38;28.48;;;15.43;;
36233;SDS011;43467;50.890;5.982;2023-12-14T11:28:06;24.40;;;14.20;;
36233;SDS011;43467;50.890;5.982;2023-12-14T11:30:32;24.75;;;14.70;;
36233;SDS011;43467;50.890;5.982;2023-12-14T11:33:00;24.70;;;14.43;;
36233;SDS011;43467;50.890;5.982;2023-12-14T11:35:25;26.80;;;16.65;;
36233;SDS011;43467;50.890;5.982;2023-12-14T11:37:50;25.13;;;15.25;;
36233;SDS011;43467;50.890;5.982;2023-12-14T11:40:16;24.70;;;15.93;;
36233;SDS011;43467;50.890;5.982;2023-12-14T11:42:57;25.75;;;16.25;;
36233;SDS011;43467;50.890;5.982;2023-12-14T11:45:26;26.80;;;16.00;;
36233;SDS011;43467;50.890;5.982;2023-12-14T11:47:52;27.30;;;15.48;;
36233;SDS011;43467;50.890;5.982;2023-12-14T11:50:18;31.05;;;16.40;;
36233;SDS011;43467;50.890;5.982;2023-12-14T11:52:43;31.30;;;17.75;;
36233;SDS011;43467;50.890;5.982;2023-12-14T11:55:10;36.30;;;18.65;;
36233;SDS011;43467;50.890;5.982;2023-12-14T11:57:35;25.70;;;16.50;;
36233;SDS011;43467;50.890;5.982;2023-12-14T12:00:01;30.65;;;18.27;;
36233;SDS011;43467;50.890;5.982;2023-12-14T12:02:28;30.83;;;18.48;;
36233;SDS011;43467;50.890;5.982;2023-12-14T12:04:53;31.13;;;16.50;;
36233;SDS011;43467;50.890;5.982;2023-12-14T12:07:19;25.70;;;15.82;;
36233;SDS011;43467;50.890;5.982;2023-12-14T12:09:44;25.65;;;15.90;;
36233;SDS011;43467;50.890;5.982;2023-12-14T12:12:10;26.42;;;15.18;;
36233;SDS011;43467;50.890;5.982;2023-12-14T12:14:37;23.75;;;14.55;;
36233;SDS011;43467;50.890;5.982;2023-12-14T12:17:04;23.77;;;14.70;;
36233;SDS011;43467;50.890;5.982;2023-12-14T12:19:39;23.42;;;14.00;;
36233;SDS011;43467;50.890;5.982;2023-12-14T12:22:04;23.52;;;14.18;;
36233;SDS011;43467;50.890;5.982;2023-12-14T12:24:30;24.20;;;14.98;;
36233;SDS011;43467;50.890;5.982;2023-12-14T12:26:55;22.67;;;13.80;;
36233;SDS011;43467;50.890;5.982;2023-12-14T12:29:21;17.48;;;11.77;;
36233;SDS011;43467;50.890;5.982;2023-12-14T12:31:47;24.48;;;11.95;;
36233;SDS011;43467;50.890;5.982;2023-12-14T12:34:13;17.88;;;10.95;;
36233;SDS011;43467;50.890;5.982;2023-12-14T12:36:38;18.00;;;11.40;;
36233;SDS011;43467;50.890;5.982;2023-12-14T12:39:03;17.63;;;11.32;;
36233;SDS011;43467;50.890;5.982;2023-12-14T12:41:31;25.40;;;12.27;;
36233;SDS011;43467;50.890;5.982;2023-12-14T12:43:58;24.17;;;11.65;;
36233;SDS011;43467;50.890;5.982;2023-12-14T12:46:24;22.20;;;13.57;;
36233;SDS011;43467;50.890;5.982;2023-12-14T12:48:49;19.27;;;11.93;;
36233;SDS011;43467;50.890;5.982;2023-12-14T12:51:16;18.05;;;10.80;;
36233;SDS011;43467;50.890;5.982;2023-12-14T12:53:42;18.85;;;12.00;;
36233;SDS011;43467;50.890;5.982;2023-12-14T12:56:07;19.55;;;11.55;;
36233;SDS011;43467;50.890;5.982;2023-12-14T12:58:32;18.98;;;12.13;;
36233;SDS011;43467;50.890;5.982;2023-12-14T13:00:58;17.30;;;11.52;;
36233;SDS011;43467;50.890;5.982;2023-12-14T13:03:23;17.77;;;10.80;;
36233;SDS011;43467;50.890;5.982;2023-12-14T13:05:49;19.17;;;11.48;;
36233;SDS011;43467;50.890;5.982;2023-12-14T13:08:14;17.38;;;11.63;;
36233;SDS011;43467;50.890;5.982;2023-12-14T13:10:40;18.45;;;12.13;;
36233;SDS011;43467;50.890;5.982;2023-12-14T13:13:05;22.00;;;11.82;;
36233;SDS011;43467;50.890;5.982;2023-12-14T13:15:32;15.48;;;11.10;;
36233;SDS011;43467;50.890;5.982;2023-12-14T13:17:57;17.55;;;10.98;;
36233;SDS011;43467;50.890;5.982;2023-12-14T13:20:23;14.70;;;10.13;;
36233;SDS011;43467;50.890;5.982;2023-12-14T13:22:49;16.08;;;9.63;;
36233;SDS011;43467;50.890;5.982;2023-12-14T13:25:15;10.75;;;8.43;;
36233;SDS011;43467;50.890;5.982;2023-12-14T13:27:40;14.85;;;8.98;;
36233;SDS011;43467;50.890;5.982;2023-12-14T13:30:06;10.77;;;8.00;;
36233;SDS011;43467;50.890;5.982;2023-12-14T13:32:33;12.80;;;9.05;;
36233;SDS011;43467;50.890;5.982;2023-12-14T13:34:59;11.35;;;8.10;;
36233;SDS011;43467;50.890;5.982;2023-12-14T13:37:24;12.77;;;9.23;;
36233;SDS011;43467;50.890;5.982;2023-12-14T13:39:50;13.63;;;9.00;;
36233;SDS011;43467;50.890;5.982;2023-12-14T13:42:17;13.32;;;9.57;;
36233;SDS011;43467;50.890;5.982;2023-12-14T13:44:44;12.55;;;8.63;;
36233;SDS011;43467;50.890;5.982;2023-12-14T13:47:10;16.05;;;9.40;;
36233;SDS011;43467;50.890;5.982;2023-12-14T13:49:35;13.18;;;8.65;;
36233;SDS011;43467;50.890;5.982;2023-12-14T13:52:01;12.95;;;8.20;;
36233;SDS011;43467;50.890;5.982;2023-12-14T13:54:26;12.07;;;8.38;;
36233;SDS011;43467;50.890;5.982;2023-12-14T13:56:52;12.48;;;8.85;;
36233;SDS011;43467;50.890;5.982;2023-12-14T13:59:18;13.35;;;8.55;;
36233;SDS011;43467;50.890;5.982;2023-12-14T14:01:44;13.95;;;9.32;;
36233;SDS011;43467;50.890;5.982;2023-12-14T14:04:09;14.23;;;8.20;;
36233;SDS011;43467;50.890;5.982;2023-12-14T14:06:35;14.27;;;8.82;;
36233;SDS011;43467;50.890;5.982;2023-12-14T14:09:01;11.50;;;8.45;;
36233;SDS011;43467;50.890;5.982;2023-12-14T14:11:26;12.80;;;9.02;;
36233;SDS011;43467;50.890;5.982;2023-12-14T14:13:52;15.68;;;9.65;;
36233;SDS011;43467;50.890;5.982;2023-12-14T14:16:17;12.98;;;8.68;;
36233;SDS011;43467;50.890;5.982;2023-12-14T14:18:43;15.05;;;8.43;;
36233;SDS011;43467;50.890;5.982;2023-12-14T14:21:08;14.00;;;8.27;;
36233;SDS011;43467;50.890;5.982;2023-12-14T14:23:34;14.07;;;8.73;;